sensor_id;sensor_type;location;lat;lon;timestamp;P1;durP1;ratioP1;P2;durP2;ratioP2
4214;SDS011;2121;48.062;7.850;2023-12-04T00:01:18;17.47;;;9.70;;
4214;SDS011;2121;48.062;7.850;2023-12-04T00:03:44;21.93;;;10.57;;
4214;SDS011;2121;48.062;7.850;2023-12-04T00:06:10;20.70;;;9.37;;
4214;SDS011;2121;48.062;7.850;2023-12-04T00:08:37;17.53;;;8.20;;
4214;SDS011;2121;48.062;7.850;2023-12-04T00:11:03;12.50;;;9.57;;
4214;SDS011;2121;48.062;7.850;2023-12-04T00:13:30;15.20;;;8.50;;
4214;SDS011;2121;48.062;7.850;2023-12-04T00:15:56;12.90;;;8.50;;
4214;SDS011;2121;48.062;7.850;2023-12-04T00:18:22;14.20;;;8.30;;
4214;SDS011;2121;48.062;7.850;2023-12-04T00:20:48;17.23;;;9.67;;
4214;SDS011;2121;48.062;7.850;2023-12-04T00:23:13;10.07;;;7.20;;
4214;SDS011;2121;48.062;7.850;2023-12-04T00:25:39;17.40;;;8.50;;
4214;SDS011;2121;48.062;7.850;2023-12-04T00:28:05;14.33;;;9.40;;
4214;SDS011;2121;48.062;7.850;2023-12-04T00:30:30;14.73;;;8.93;;
4214;SDS011;2121;48.062;7.850;2023-12-04T00:32:56;16.93;;;9.17;;
4214;SDS011;2121;48.062;7.850;2023-12-04T00:35:22;16.53;;;10.00;;
4214;SDS011;2121;48.062;7.850;2023-12-04T00:37:48;16.30;;;9.70;;
4214;SDS011;2121;48.062;7.850;2023-12-04T00:40:13;15.83;;;9.53;;
4214;SDS011;2121;48.062;7.850;2023-12-04T00:42:39;11.60;;;7.23;;
4214;SDS011;2121;48.062;7.850;2023-12-04T00:45:05;11.87;;;7.20;;
4214;SDS011;2121;48.062;7.850;2023-12-04T00:47:31;13.90;;;7.97;;
4214;SDS011;2121;48.062;7.850;2023-12-04T00:49:57;18.50;;;9.33;;
4214;SDS011;2121;48.062;7.850;2023-12-04T00:52:23;13.30;;;8.57;;
4214;SDS011;2121;48.062;7.850;2023-12-04T00:54:48;11.60;;;6.97;;
4214;SDS011;2121;48.062;7.850;2023-12-04T00:57:14;14.83;;;9.23;;
4214;SDS011;2121;48.062;7.850;2023-12-04T00:59:40;18.50;;;9.30;;
4214;SDS011;2121;48.062;7.850;2023-12-04T01:02:06;15.57;;;9.83;;
4214;SDS011;2121;48.062;7.850;2023-12-04T01:04:32;13.73;;;8.23;;
4214;SDS011;2121;48.062;7.850;2023-12-04T01:06:58;12.73;;;8.40;;
4214;SDS011;2121;48.062;7.850;2023-12-04T01:09:25;12.80;;;9.13;;
4214;SDS011;2121;48.062;7.850;2023-12-04T01:11:53;11.30;;;9.10;;
4214;SDS011;2121;48.062;7.850;2023-12-04T01:14:20;10.43;;;7.97;;
4214;SDS011;2121;48.062;7.850;2023-12-04T01:16:45;16.93;;;8.40;;
4214;SDS011;2121;48.062;7.850;2023-12-04T01:19:11;15.10;;;8.50;;
4214;SDS011;2121;48.062;7.850;2023-12-04T01:21:37;17.67;;;9.67;;
4214;SDS011;2121;48.062;7.850;2023-12-04T01:24:03;19.20;;;8.70;;
4214;SDS011;2121;48.062;7.850;2023-12-04T01:26:29;15.27;;;9.80;;
4214;SDS011;2121;48.062;7.850;2023-12-04T01:28:55;14.67;;;9.33;;
4214;SDS011;2121;48.062;7.850;2023-12-04T01:31:21;14.10;;;8.90;;
4214;SDS011;2121;48.062;7.850;2023-12-04T01:33:47;14.80;;;9.53;;
4214;SDS011;2121;48.062;7.850;2023-12-04T01:36:12;18.40;;;10.50;;
4214;SDS011;2121;48.062;7.850;2023-12-04T01:38:38;15.97;;;8.83;;
4214;SDS011;2121;48.062;7.850;2023-12-04T01:41:04;13.90;;;9.40;;
4214;SDS011;2121;48.062;7.850;2023-12-04T01:43:31;13.67;;;8.07;;
4214;SDS011;2121;48.062;7.850;2023-12-04T01:45:56;15.57;;;9.60;;
4214;SDS011;2121;48.062;7.850;2023-12-04T01:48:24;22.10;;;9.27;;
4214;SDS011;2121;48.062;7.850;2023-12-04T01:50:51;18.60;;;9.60;;
4214;SDS011;2121;48.062;7.850;2023-12-04T01:53:17;12.23;;;8.97;;
4214;SDS011;2121;48.062;7.850;2023-12-04T01:55:44;15.03;;;9.07;;
4214;SDS011;2121;48.062;7.850;2023-12-04T01:58:11;17.73;;;9.77;;
4214;SDS011;2121;48.062;7.850;2023-12-04T02:00:37;18.67;;;10.50;;
4214;SDS011;2121;48.062;7.850;2023-12-04T02:03:03;16.60;;;9.90;;
4214;SDS011;2121;48.062;7.850;2023-12-04T02:05:29;14.03;;;8.93;;
4214;SDS011;2121;48.062;7.850;2023-12-04T02:07:57;10.83;;;7.40;;
4214;SDS011;2121;48.062;7.850;2023-12-04T02:10:22;16.37;;;8.53;;
4214;SDS011;2121;48.062;7.850;2023-12-04T02:12:49;12.90;;;8.90;;
4214;SDS011;2121;48.062;7.850;2023-12-04T02:15:15;17.10;;;10.23;;
4214;SDS011;2121;48.062;7.850;2023-12-04T02:17:42;14.97;;;9.60;;
4214;SDS011;2121;48.062;7.850;2023-12-04T02:20:09;16.83;;;9.00;;
4214;SDS011;2121;48.062;7.850;2023-12-04T02:22:38;14.57;;;9.77;;
4214;SDS011;2121;48.062;7.850;2023-12-04T02:25:04;14.13;;;9.13;;
4214;SDS011;2121;48.062;7.850;2023-12-04T02:27:43;14.87;;;9.63;;
4214;SDS011;2121;48.062;7.850;2023-12-04T02:30:15;18.07;;;9.67;;
4214;SDS011;2121;48.062;7.850;2023-12-04T02:32:46;13.60;;;9.13;;
4214;SDS011;2121;48.062;7.850;2023-12-04T02:35:17;14.80;;;9.17;;
4214;SDS011;2121;48.062;7.850;2023-12-04T02:37:47;16.63;;;8.73;;
4214;SDS011;2121;48.062;7.850;2023-12-04T02:40:13;13.50;;;9.00;;
4214;SDS011;2121;48.062;7.850;2023-12-04T02:42:40;12.23;;;8.80;;
4214;SDS011;2121;48.062;7.850;2023-12-04T02:45:06;17.70;;;9.23;;
4214;SDS011;2121;48.062;7.850;2023-12-04T02:47:32;12.73;;;8.03;;
4214;SDS011;2121;48.062;7.850;2023-12-04T02:49:58;12.17;;;8.27;;
4214;SDS011;2121;48.062;7.850;2023-12-04T02:52:24;11.73;;;8.10;;
4214;SDS011;2121;48.062;7.850;2023-12-04T02:54:49;13.13;;;9.10;;
4214;SDS011;2121;48.062;7.850;2023-12-04T02:57:15;12.83;;;7.33;;
4214;SDS011;2121;48.062;7.850;2023-12-04T02:59:42;18.90;;;8.90;;
4214;SDS011;2121;48.062;7.850;2023-12-04T03:02:08;15.07;;;8.40;;
4214;SDS011;2121;48.062;7.850;2023-12-04T03:04:34;13.23;;;8.40;;
4214;SDS011;2121;48.062;7.850;2023-12-04T03:07:00;16.13;;;8.33;;
4214;SDS011;2121;48.062;7.850;2023-12-04T03:09:26;13.47;;;8.90;;
4214;SDS011;2121;48.062;7.850;2023-12-04T03:11:52;10.00;;;7.70;;
4214;SDS011;2121;48.062;7.850;2023-12-04T03:14:17;13.10;;;7.90;;
4214;SDS011;2121;48.062;7.850;2023-12-04T03:16:43;15.07;;;7.93;;
4214;SDS011;2121;48.062;7.850;2023-12-04T03:19:09;13.87;;;9.23;;
4214;SDS011;2121;48.062;7.850;2023-12-04T03:21:34;10.17;;;7.77;;
4214;SDS011;2121;48.062;7.850;2023-12-04T03:24:00;13.13;;;7.07;;
4214;SDS011;2121;48.062;7.850;2023-12-04T03:26:26;13.07;;;7.13;;
4214;SDS011;2121;48.062;7.850;2023-12-04T03:28:53;10.80;;;7.23;;
4214;SDS011;2121;48.062;7.850;2023-12-04T03:31:18;12.20;;;7.53;;
4214;SDS011;2121;48.062;7.850;2023-12-04T03:33:44;12.97;;;8.10;;
4214;SDS011;2121;48.062;7.850;2023-12-04T03:36:10;9.03;;;6.70;;
4214;SDS011;2121;48.062;7.850;2023-12-04T03:38:36;10.50;;;7.20;;
4214;SDS011;2121;48.062;7.850;2023-12-04T03:41:01;10.77;;;7.07;;
4214;SDS011;2121;48.062;7.850;2023-12-04T03:43:27;11.43;;;7.33;;
4214;SDS011;2121;48.062;7.850;2023-12-04T03:45:53;10.60;;;6.10;;
4214;SDS011;2121;48.062;7.850;2023-12-04T03:48:19;10.57;;;7.37;;
4214;SDS011;2121;48.062;7.850;2023-12-04T03:50:44;10.23;;;6.10;;
4214;SDS011;2121;48.062;7.850;2023-12-04T03:53:10;9.47;;;6.57;;
4214;SDS011;2121;48.062;7.850;2023-12-04T03:55:37;9.80;;;5.60;;
4214;SDS011;2121;48.062;7.850;2023-12-04T03:58:03;10.00;;;6.00;;
4214;SDS011;2121;48.062;7.850;2023-12-04T04:00:29;9.10;;;6.67;;
4214;SDS011;2121;48.062;7.850;2023-12-04T04:02:54;7.03;;;6.03;;
4214;SDS011;2121;48.062;7.850;2023-12-04T04:05:20;7.80;;;5.80;;
4214;SDS011;2121;48.062;7.850;2023-12-04T04:07:46;8.20;;;5.73;;
4214;SDS011;2121;48.062;7.850;2023-12-04T04:10:12;5.50;;;4.47;;
4214;SDS011;2121;48.062;7.850;2023-12-04T04:12:37;5.90;;;4.67;;
4214;SDS011;2121;48.062;7.850;2023-12-04T04:15:03;7.40;;;4.30;;
4214;SDS011;2121;48.062;7.850;2023-12-04T04:17:30;4.93;;;3.60;;
4214;SDS011;2121;48.062;7.850;2023-12-04T04:19:58;6.73;;;4.20;;
4214;SDS011;2121;48.062;7.850;2023-12-04T04:22:24;6.20;;;4.73;;
4214;SDS011;2121;48.062;7.850;2023-12-04T04:24:49;9.13;;;6.70;;
4214;SDS011;2121;48.062;7.850;2023-12-04T04:27:15;10.00;;;5.70;;
4214;SDS011;2121;48.062;7.850;2023-12-04T04:29:41;7.40;;;5.73;;
4214;SDS011;2121;48.062;7.850;2023-12-04T04:32:07;6.90;;;5.43;;
4214;SDS011;2121;48.062;7.850;2023-12-04T04:34:33;10.17;;;5.90;;
4214;SDS011;2121;48.062;7.850;2023-12-04T04:36:59;8.50;;;5.80;;
4214;SDS011;2121;48.062;7.850;2023-12-04T04:39:24;7.07;;;5.50;;
4214;SDS011;2121;48.062;7.850;2023-12-04T04:41:50;14.70;;;5.83;;
4214;SDS011;2121;48.062;7.850;2023-12-04T04:44:16;9.40;;;6.53;;
4214;SDS011;2121;48.062;7.850;2023-12-04T04:46:41;13.03;;;7.23;;
4214;SDS011;2121;48.062;7.850;2023-12-04T04:49:07;9.67;;;5.90;;
4214;SDS011;2121;48.062;7.850;2023-12-04T04:51:33;8.50;;;4.80;;
4214;SDS011;2121;48.062;7.850;2023-12-04T04:54:00;12.50;;;7.27;;
4214;SDS011;2121;48.062;7.850;2023-12-04T04:56:26;7.47;;;5.80;;
4214;SDS011;2121;48.062;7.850;2023-12-04T04:58:52;10.97;;;8.40;;
4214;SDS011;2121;48.062;7.850;2023-12-04T05:01:18;11.07;;;6.83;;
4214;SDS011;2121;48.062;7.850;2023-12-04T05:03:44;13.50;;;7.17;;
4214;SDS011;2121;48.062;7.850;2023-12-04T05:06:09;10.07;;;7.17;;
4214;SDS011;2121;48.062;7.850;2023-12-04T05:08:35;15.53;;;8.20;;
4214;SDS011;2121;48.062;7.850;2023-12-04T05:11:01;13.83;;;7.33;;
4214;SDS011;2121;48.062;7.850;2023-12-04T05:13:27;11.40;;;8.30;;
4214;SDS011;2121;48.062;7.850;2023-12-04T05:15:53;14.73;;;8.80;;
4214;SDS011;2121;48.062;7.850;2023-12-04T05:18:18;15.57;;;9.30;;
4214;SDS011;2121;48.062;7.850;2023-12-04T05:20:44;11.07;;;7.50;;
4214;SDS011;2121;48.062;7.850;2023-12-04T05:23:10;11.97;;;7.90;;
4214;SDS011;2121;48.062;7.850;2023-12-04T05:25:35;12.63;;;7.57;;
4214;SDS011;2121;48.062;7.850;2023-12-04T05:28:01;13.60;;;7.23;;
4214;SDS011;2121;48.062;7.850;2023-12-04T05:30:27;9.40;;;6.30;;
4214;SDS011;2121;48.062;7.850;2023-12-04T05:32:53;10.13;;;7.13;;
4214;SDS011;2121;48.062;7.850;2023-12-04T05:35:19;9.40;;;5.83;;
4214;SDS011;2121;48.062;7.850;2023-12-04T05:37:45;7.83;;;6.80;;
4214;SDS011;2121;48.062;7.850;2023-12-04T05:40:11;13.30;;;8.43;;
4214;SDS011;2121;48.062;7.850;2023-12-04T05:42:37;8.43;;;6.93;;
4214;SDS011;2121;48.062;7.850;2023-12-04T05:45:03;12.00;;;6.60;;
4214;SDS011;2121;48.062;7.850;2023-12-04T05:47:29;9.20;;;6.37;;
4214;SDS011;2121;48.062;7.850;2023-12-04T05:49:55;10.63;;;6.60;;
4214;SDS011;2121;48.062;7.850;2023-12-04T05:52:21;7.67;;;5.40;;
4214;SDS011;2121;48.062;7.850;2023-12-04T05:54:46;6.93;;;5.50;;
4214;SDS011;2121;48.062;7.850;2023-12-04T05:57:12;12.33;;;7.03;;
4214;SDS011;2121;48.062;7.850;2023-12-04T05:59:38;14.30;;;7.13;;
4214;SDS011;2121;48.062;7.850;2023-12-04T06:02:03;21.43;;;9.20;;
4214;SDS011;2121;48.062;7.850;2023-12-04T06:04:29;13.77;;;8.27;;
4214;SDS011;2121;48.062;7.850;2023-12-04T06:06:55;14.63;;;7.50;;
4214;SDS011;2121;48.062;7.850;2023-12-04T06:09:21;11.40;;;6.40;;
4214;SDS011;2121;48.062;7.850;2023-12-04T06:11:46;12.23;;;7.00;;
4214;SDS011;2121;48.062;7.850;2023-12-04T06:14:12;10.73;;;6.30;;
4214;SDS011;2121;48.062;7.850;2023-12-04T06:16:38;10.63;;;6.65;;
4214;SDS011;2121;48.062;7.850;2023-12-04T06:19:04;9.30;;;7.53;;
4214;SDS011;2121;48.062;7.850;2023-12-04T06:21:30;10.07;;;5.63;;
4214;SDS011;2121;48.062;7.850;2023-12-04T06:23:56;13.90;;;8.52;;
4214;SDS011;2121;48.062;7.850;2023-12-04T06:26:23;10.87;;;9.00;;
4214;SDS011;2121;48.062;7.850;2023-12-04T06:28:49;12.83;;;8.30;;
4214;SDS011;2121;48.062;7.850;2023-12-04T06:31:15;16.00;;;8.90;;
4214;SDS011;2121;48.062;7.850;2023-12-04T06:33:42;13.50;;;8.50;;
4214;SDS011;2121;48.062;7.850;2023-12-04T06:36:08;15.67;;;9.03;;
4214;SDS011;2121;48.062;7.850;2023-12-04T06:38:39;15.07;;;8.15;;
4214;SDS011;2121;48.062;7.850;2023-12-04T06:41:06;10.70;;;6.60;;
4214;SDS011;2121;48.062;7.850;2023-12-04T06:43:33;10.03;;;7.00;;
4214;SDS011;2121;48.062;7.850;2023-12-04T06:45:59;11.00;;;7.83;;
4214;SDS011;2121;48.062;7.850;2023-12-04T06:48:25;13.00;;;8.57;;
4214;SDS011;2121;48.062;7.850;2023-12-04T06:50:51;18.37;;;9.40;;
4214;SDS011;2121;48.062;7.850;2023-12-04T06:53:18;11.67;;;9.23;;
4214;SDS011;2121;48.062;7.850;2023-12-04T06:55:43;15.90;;;10.07;;
4214;SDS011;2121;48.062;7.850;2023-12-04T06:58:09;14.80;;;10.20;;
4214;SDS011;2121;48.062;7.850;2023-12-04T07:00:35;17.13;;;10.10;;
4214;SDS011;2121;48.062;7.850;2023-12-04T07:03:01;17.50;;;10.80;;
4214;SDS011;2121;48.062;7.850;2023-12-04T07:05:27;28.73;;;12.03;;
4214;SDS011;2121;48.062;7.850;2023-12-04T07:07:53;13.87;;;9.80;;
4214;SDS011;2121;48.062;7.850;2023-12-04T07:10:19;20.33;;;10.90;;
4214;SDS011;2121;48.062;7.850;2023-12-04T07:12:44;18.50;;;12.03;;
4214;SDS011;2121;48.062;7.850;2023-12-04T07:15:11;20.67;;;11.60;;
4214;SDS011;2121;48.062;7.850;2023-12-04T07:17:37;20.93;;;12.00;;
4214;SDS011;2121;48.062;7.850;2023-12-04T07:20:05;17.10;;;10.80;;
4214;SDS011;2121;48.062;7.850;2023-12-04T07:22:34;14.73;;;10.03;;
4214;SDS011;2121;48.062;7.850;2023-12-04T07:25:00;21.30;;;10.53;;
4214;SDS011;2121;48.062;7.850;2023-12-04T07:27:25;19.33;;;9.97;;
4214;SDS011;2121;48.062;7.850;2023-12-04T07:29:51;14.10;;;9.07;;
4214;SDS011;2121;48.062;7.850;2023-12-04T07:32:17;15.43;;;9.60;;
4214;SDS011;2121;48.062;7.850;2023-12-04T07:34:43;19.00;;;14.77;;
4214;SDS011;2121;48.062;7.850;2023-12-04T07:37:09;22.43;;;11.10;;
4214;SDS011;2121;48.062;7.850;2023-12-04T07:39:35;16.93;;;13.50;;
4214;SDS011;2121;48.062;7.850;2023-12-04T07:42:01;18.60;;;10.90;;
4214;SDS011;2121;48.062;7.850;2023-12-04T07:44:27;17.67;;;9.33;;
4214;SDS011;2121;48.062;7.850;2023-12-04T07:46:52;19.70;;;11.47;;
4214;SDS011;2121;48.062;7.850;2023-12-04T07:49:18;16.30;;;10.30;;
4214;SDS011;2121;48.062;7.850;2023-12-04T07:51:45;17.03;;;10.87;;
4214;SDS011;2121;48.062;7.850;2023-12-04T07:54:11;26.10;;;14.63;;
4214;SDS011;2121;48.062;7.850;2023-12-04T07:56:37;25.03;;;11.80;;
4214;SDS011;2121;48.062;7.850;2023-12-04T07:59:02;32.13;;;13.90;;
4214;SDS011;2121;48.062;7.850;2023-12-04T08:01:28;29.63;;;14.20;;
4214;SDS011;2121;48.062;7.850;2023-12-04T08:03:54;27.77;;;12.80;;
4214;SDS011;2121;48.062;7.850;2023-12-04T08:06:20;23.40;;;13.87;;
4214;SDS011;2121;48.062;7.850;2023-12-04T08:08:45;28.10;;;14.30;;
4214;SDS011;2121;48.062;7.850;2023-12-04T08:11:11;22.90;;;13.13;;
4214;SDS011;2121;48.062;7.850;2023-12-04T08:13:38;26.13;;;11.43;;
4214;SDS011;2121;48.062;7.850;2023-12-04T08:16:04;26.90;;;13.50;;
4214;SDS011;2121;48.062;7.850;2023-12-04T08:18:38;23.60;;;13.80;;
4214;SDS011;2121;48.062;7.850;2023-12-04T08:21:03;23.40;;;13.57;;
4214;SDS011;2121;48.062;7.850;2023-12-04T08:23:29;23.20;;;13.93;;
4214;SDS011;2121;48.062;7.850;2023-12-04T08:25:55;28.57;;;16.77;;
4214;SDS011;2121;48.062;7.850;2023-12-04T08:28:22;25.73;;;15.20;;
4214;SDS011;2121;48.062;7.850;2023-12-04T08:30:47;32.23;;;15.17;;
4214;SDS011;2121;48.062;7.850;2023-12-04T08:33:13;27.50;;;15.87;;
4214;SDS011;2121;48.062;7.850;2023-12-04T08:35:39;29.13;;;15.70;;
4214;SDS011;2121;48.062;7.850;2023-12-04T08:38:05;30.83;;;15.33;;
4214;SDS011;2121;48.062;7.850;2023-12-04T08:40:31;25.30;;;13.73;;
4214;SDS011;2121;48.062;7.850;2023-12-04T08:42:57;24.70;;;15.97;;
4214;SDS011;2121;48.062;7.850;2023-12-04T08:45:23;24.53;;;15.27;;
4214;SDS011;2121;48.062;7.850;2023-12-04T08:47:49;24.03;;;13.97;;
4214;SDS011;2121;48.062;7.850;2023-12-04T08:50:15;27.30;;;15.13;;
4214;SDS011;2121;48.062;7.850;2023-12-04T08:52:41;24.90;;;13.13;;
4214;SDS011;2121;48.062;7.850;2023-12-04T08:55:07;34.53;;;17.73;;
4214;SDS011;2121;48.062;7.850;2023-12-04T08:57:33;29.17;;;17.17;;
4214;SDS011;2121;48.062;7.850;2023-12-04T08:59:59;25.40;;;14.40;;
4214;SDS011;2121;48.062;7.850;2023-12-04T09:02:25;21.47;;;13.30;;
4214;SDS011;2121;48.062;7.850;2023-12-04T09:04:50;31.47;;;16.20;;
4214;SDS011;2121;48.062;7.850;2023-12-04T09:07:16;28.37;;;15.20;;
4214;SDS011;2121;48.062;7.850;2023-12-04T09:09:42;27.70;;;14.87;;
4214;SDS011;2121;48.062;7.850;2023-12-04T09:12:09;29.00;;;16.40;;
4214;SDS011;2121;48.062;7.850;2023-12-04T09:14:35;27.50;;;14.93;;
4214;SDS011;2121;48.062;7.850;2023-12-04T09:17:01;31.20;;;16.53;;
4214;SDS011;2121;48.062;7.850;2023-12-04T09:19:26;34.50;;;16.43;;
4214;SDS011;2121;48.062;7.850;2023-12-04T09:21:52;27.33;;;15.00;;
4214;SDS011;2121;48.062;7.850;2023-12-04T09:24:18;25.80;;;16.77;;
4214;SDS011;2121;48.062;7.850;2023-12-04T09:26:44;26.30;;;13.87;;
4214;SDS011;2121;48.062;7.850;2023-12-04T09:29:13;26.20;;;15.63;;
4214;SDS011;2121;48.062;7.850;2023-12-04T09:31:38;22.50;;;14.00;;
4214;SDS011;2121;48.062;7.850;2023-12-04T09:34:05;27.23;;;13.73;;
4214;SDS011;2121;48.062;7.850;2023-12-04T09:36:30;25.33;;;14.93;;
4214;SDS011;2121;48.062;7.850;2023-12-04T09:38:56;27.63;;;15.67;;
4214;SDS011;2121;48.062;7.850;2023-12-04T09:41:22;24.77;;;14.30;;
4214;SDS011;2121;48.062;7.850;2023-12-04T09:43:48;23.53;;;14.63;;
4214;SDS011;2121;48.062;7.850;2023-12-04T09:46:14;24.30;;;13.80;;
4214;SDS011;2121;48.062;7.850;2023-12-04T09:48:42;22.20;;;14.40;;
4214;SDS011;2121;48.062;7.850;2023-12-04T09:51:09;21.73;;;13.80;;
4214;SDS011;2121;48.062;7.850;2023-12-04T09:53:35;28.20;;;15.90;;
4214;SDS011;2121;48.062;7.850;2023-12-04T09:56:02;29.10;;;15.83;;
4214;SDS011;2121;48.062;7.850;2023-12-04T09:58:29;27.20;;;15.23;;
4214;SDS011;2121;48.062;7.850;2023-12-04T10:00:58;29.77;;;17.00;;
4214;SDS011;2121;48.062;7.850;2023-12-04T10:03:26;24.77;;;14.00;;
4214;SDS011;2121;48.062;7.850;2023-12-04T10:05:53;28.10;;;14.37;;
4214;SDS011;2121;48.062;7.850;2023-12-04T10:08:19;22.50;;;14.80;;
4214;SDS011;2121;48.062;7.850;2023-12-04T10:10:46;22.00;;;14.57;;
4214;SDS011;2121;48.062;7.850;2023-12-04T10:13:12;28.67;;;15.23;;
4214;SDS011;2121;48.062;7.850;2023-12-04T10:15:46;28.33;;;18.43;;
4214;SDS011;2121;48.062;7.850;2023-12-04T10:18:30;25.47;;;16.60;;
4214;SDS011;2121;48.062;7.850;2023-12-04T10:20:57;28.77;;;17.63;;
4214;SDS011;2121;48.062;7.850;2023-12-04T10:23:40;24.30;;;15.83;;
4214;SDS011;2121;48.062;7.850;2023-12-04T10:26:07;29.73;;;17.07;;
4214;SDS011;2121;48.062;7.850;2023-12-04T10:28:36;33.30;;;15.60;;
4214;SDS011;2121;48.062;7.850;2023-12-04T10:31:02;28.80;;;15.50;;
4214;SDS011;2121;48.062;7.850;2023-12-04T10:33:32;23.90;;;15.67;;
4214;SDS011;2121;48.062;7.850;2023-12-04T10:35:58;31.53;;;14.73;;
4214;SDS011;2121;48.062;7.850;2023-12-04T10:38:23;22.47;;;13.90;;
4214;SDS011;2121;48.062;7.850;2023-12-04T10:40:51;31.10;;;15.87;;
4214;SDS011;2121;48.062;7.850;2023-12-04T10:43:18;24.73;;;14.70;;
4214;SDS011;2121;48.062;7.850;2023-12-04T10:45:47;24.07;;;14.73;;
4214;SDS011;2121;48.062;7.850;2023-12-04T10:48:15;25.47;;;14.83;;
4214;SDS011;2121;48.062;7.850;2023-12-04T10:50:43;27.50;;;15.70;;
4214;SDS011;2121;48.062;7.850;2023-12-04T10:53:12;39.63;;;16.77;;
4214;SDS011;2121;48.062;7.850;2023-12-04T10:55:39;33.30;;;17.07;;
4214;SDS011;2121;48.062;7.850;2023-12-04T10:58:07;25.93;;;15.30;;
4214;SDS011;2121;48.062;7.850;2023-12-04T11:00:46;27.53;;;15.40;;
4214;SDS011;2121;48.062;7.850;2023-12-04T11:03:24;23.40;;;14.83;;
4214;SDS011;2121;48.062;7.850;2023-12-04T11:06:01;24.90;;;14.07;;
4214;SDS011;2121;48.062;7.850;2023-12-04T11:08:32;26.00;;;15.40;;
4214;SDS011;2121;48.062;7.850;2023-12-04T11:11:03;26.47;;;16.20;;
4214;SDS011;2121;48.062;7.850;2023-12-04T11:13:40;29.47;;;16.03;;
4214;SDS011;2121;48.062;7.850;2023-12-04T11:18:49;20.00;;;15.07;;
4214;SDS011;2121;48.062;7.850;2023-12-04T11:21:21;26.00;;;14.80;;
4214;SDS011;2121;48.062;7.850;2023-12-04T11:23:48;24.83;;;14.20;;
4214;SDS011;2121;48.062;7.850;2023-12-04T11:26:15;27.10;;;16.17;;
4214;SDS011;2121;48.062;7.850;2023-12-04T11:28:42;26.13;;;15.40;;
4214;SDS011;2121;48.062;7.850;2023-12-04T11:31:09;33.53;;;17.90;;
4214;SDS011;2121;48.062;7.850;2023-12-04T11:33:36;25.30;;;16.83;;
4214;SDS011;2121;48.062;7.850;2023-12-04T11:36:09;37.07;;;19.37;;
4214;SDS011;2121;48.062;7.850;2023-12-04T11:38:38;32.57;;;19.13;;
4214;SDS011;2121;48.062;7.850;2023-12-04T11:41:21;31.90;;;19.10;;
4214;SDS011;2121;48.062;7.850;2023-12-04T11:43:48;30.43;;;20.17;;
4214;SDS011;2121;48.062;7.850;2023-12-04T11:46:19;34.33;;;19.53;;
4214;SDS011;2121;48.062;7.850;2023-12-04T11:48:50;39.13;;;20.90;;
4214;SDS011;2121;48.062;7.850;2023-12-04T11:54:13;30.53;;;18.37;;
4214;SDS011;2121;48.062;7.850;2023-12-04T11:56:55;32.17;;;19.20;;
4214;SDS011;2121;48.062;7.850;2023-12-04T11:59:24;34.10;;;17.20;;
4214;SDS011;2121;48.062;7.850;2023-12-04T12:01:51;26.27;;;16.20;;
4214;SDS011;2121;48.062;7.850;2023-12-04T12:04:21;33.33;;;16.40;;
4214;SDS011;2121;48.062;7.850;2023-12-04T12:06:48;28.13;;;17.23;;
4214;SDS011;2121;48.062;7.850;2023-12-04T12:09:14;25.10;;;15.53;;
4214;SDS011;2121;48.062;7.850;2023-12-04T12:11:40;27.13;;;16.17;;
4214;SDS011;2121;48.062;7.850;2023-12-04T12:14:06;27.63;;;17.47;;
4214;SDS011;2121;48.062;7.850;2023-12-04T12:16:32;38.80;;;16.33;;
4214;SDS011;2121;48.062;7.850;2023-12-04T12:18:57;28.83;;;16.67;;
4214;SDS011;2121;48.062;7.850;2023-12-04T12:21:23;31.77;;;17.67;;
4214;SDS011;2121;48.062;7.850;2023-12-04T12:23:50;37.73;;;19.57;;
4214;SDS011;2121;48.062;7.850;2023-12-04T12:26:16;30.83;;;17.63;;
4214;SDS011;2121;48.062;7.850;2023-12-04T12:28:42;32.93;;;18.27;;
4214;SDS011;2121;48.062;7.850;2023-12-04T12:31:10;36.73;;;18.67;;
4214;SDS011;2121;48.062;7.850;2023-12-04T12:33:36;32.07;;;18.90;;
4214;SDS011;2121;48.062;7.850;2023-12-04T12:36:02;27.03;;;17.63;;
4214;SDS011;2121;48.062;7.850;2023-12-04T12:38:29;33.90;;;21.30;;
4214;SDS011;2121;48.062;7.850;2023-12-04T12:40:59;32.17;;;18.30;;
4214;SDS011;2121;48.062;7.850;2023-12-04T12:43:27;31.30;;;18.20;;
4214;SDS011;2121;48.062;7.850;2023-12-04T12:45:53;34.60;;;19.03;;
4214;SDS011;2121;48.062;7.850;2023-12-04T12:48:19;33.83;;;17.40;;
4214;SDS011;2121;48.062;7.850;2023-12-04T12:50:45;32.33;;;16.23;;
4214;SDS011;2121;48.062;7.850;2023-12-04T12:53:13;27.53;;;17.23;;
4214;SDS011;2121;48.062;7.850;2023-12-04T12:55:42;26.47;;;15.80;;
4214;SDS011;2121;48.062;7.850;2023-12-04T12:58:09;26.90;;;16.90;;
4214;SDS011;2121;48.062;7.850;2023-12-04T13:00:35;29.60;;;16.30;;
4214;SDS011;2121;48.062;7.850;2023-12-04T13:03:01;31.03;;;14.27;;
4214;SDS011;2121;48.062;7.850;2023-12-04T13:05:27;24.40;;;14.30;;
4214;SDS011;2121;48.062;7.850;2023-12-04T13:07:53;23.13;;;14.20;;
4214;SDS011;2121;48.062;7.850;2023-12-04T13:10:20;26.97;;;15.80;;
4214;SDS011;2121;48.062;7.850;2023-12-04T13:12:48;23.27;;;14.17;;
4214;SDS011;2121;48.062;7.850;2023-12-04T13:15:17;29.73;;;17.23;;
4214;SDS011;2121;48.062;7.850;2023-12-04T13:17:43;45.47;;;21.63;;
4214;SDS011;2121;48.062;7.850;2023-12-04T13:20:09;35.37;;;19.77;;
4214;SDS011;2121;48.062;7.850;2023-12-04T13:22:38;49.13;;;22.70;;
4214;SDS011;2121;48.062;7.850;2023-12-04T13:25:05;44.93;;;24.00;;
4214;SDS011;2121;48.062;7.850;2023-12-04T13:27:38;41.43;;;24.67;;
4214;SDS011;2121;48.062;7.850;2023-12-04T13:30:05;42.03;;;22.57;;
4214;SDS011;2121;48.062;7.850;2023-12-04T13:32:33;35.17;;;20.93;;
4214;SDS011;2121;48.062;7.850;2023-12-04T13:35:01;32.87;;;20.93;;
4214;SDS011;2121;48.062;7.850;2023-12-04T13:37:29;46.80;;;23.53;;
4214;SDS011;2121;48.062;7.850;2023-12-04T13:39:56;38.03;;;22.40;;
4214;SDS011;2121;48.062;7.850;2023-12-04T13:42:31;35.27;;;20.27;;
4214;SDS011;2121;48.062;7.850;2023-12-04T13:45:18;26.63;;;17.13;;
4214;SDS011;2121;48.062;7.850;2023-12-04T13:47:48;27.43;;;16.63;;
4214;SDS011;2121;48.062;7.850;2023-12-04T13:50:14;26.33;;;16.97;;
4214;SDS011;2121;48.062;7.850;2023-12-04T13:52:40;33.57;;;16.53;;
4214;SDS011;2121;48.062;7.850;2023-12-04T13:55:08;29.97;;;17.47;;
4214;SDS011;2121;48.062;7.850;2023-12-04T13:57:45;30.00;;;18.83;;
4214;SDS011;2121;48.062;7.850;2023-12-04T14:00:20;28.73;;;18.00;;
4214;SDS011;2121;48.062;7.850;2023-12-04T14:02:46;27.47;;;16.73;;
4214;SDS011;2121;48.062;7.850;2023-12-04T14:05:12;28.43;;;17.00;;
4214;SDS011;2121;48.062;7.850;2023-12-04T14:07:40;24.60;;;15.53;;
4214;SDS011;2121;48.062;7.850;2023-12-04T14:10:08;28.17;;;18.17;;
4214;SDS011;2121;48.062;7.850;2023-12-04T14:12:34;28.70;;;15.77;;
4214;SDS011;2121;48.062;7.850;2023-12-04T14:15:01;29.20;;;16.63;;
4214;SDS011;2121;48.062;7.850;2023-12-04T14:17:28;30.17;;;17.07;;
4214;SDS011;2121;48.062;7.850;2023-12-04T14:19:54;31.33;;;18.00;;
4214;SDS011;2121;48.062;7.850;2023-12-04T14:22:20;36.07;;;17.97;;
4214;SDS011;2121;48.062;7.850;2023-12-04T14:24:45;35.73;;;19.70;;
4214;SDS011;2121;48.062;7.850;2023-12-04T14:27:11;49.63;;;29.60;;
4214;SDS011;2121;48.062;7.850;2023-12-04T14:29:37;54.80;;;31.97;;
4214;SDS011;2121;48.062;7.850;2023-12-04T14:32:05;46.97;;;28.80;;
4214;SDS011;2121;48.062;7.850;2023-12-04T14:34:31;49.77;;;27.90;;
4214;SDS011;2121;48.062;7.850;2023-12-04T14:36:57;45.80;;;25.53;;
4214;SDS011;2121;48.062;7.850;2023-12-04T14:39:23;41.10;;;26.27;;
4214;SDS011;2121;48.062;7.850;2023-12-04T14:41:49;42.20;;;26.10;;
4214;SDS011;2121;48.062;7.850;2023-12-04T14:44:16;37.50;;;25.03;;
4214;SDS011;2121;48.062;7.850;2023-12-04T14:46:43;38.17;;;23.10;;
4214;SDS011;2121;48.062;7.850;2023-12-04T14:49:10;39.70;;;23.23;;
4214;SDS011;2121;48.062;7.850;2023-12-04T14:51:36;35.70;;;22.70;;
4214;SDS011;2121;48.062;7.850;2023-12-04T14:54:02;38.70;;;21.73;;
4214;SDS011;2121;48.062;7.850;2023-12-04T14:56:46;41.23;;;19.90;;
4214;SDS011;2121;48.062;7.850;2023-12-04T14:59:45;32.00;;;20.33;;